sensor_id;sensor_type;location;lat;lon;timestamp;P1;durP1;ratioP1;P2;durP2;ratioP2
1000;SDS011;489;47.806;12.858;2024-02-15T00:00:00;7.03;;;5.33;;
1000;SDS011;489;47.806;12.858;2024-02-15T00:02:04;9.27;;;7.17;;
1000;SDS011;489;47.806;12.858;2024-02-15T00:04:06;10.10;;;5.90;;
1000;SDS011;489;47.806;12.858;2024-02-15T00:06:08;8.07;;;6.70;;
1000;SDS011;489;47.806;12.858;2024-02-15T00:08:10;7.93;;;6.00;;
1000;SDS011;489;47.806;12.858;2024-02-15T00:10:12;6.27;;;5.33;;
1000;SDS011;489;47.806;12.858;2024-02-15T00:12:15;7.07;;;4.87;;
1000;SDS011;489;47.806;12.858;2024-02-15T00:14:18;5.80;;;3.87;;
1000;SDS011;489;47.806;12.858;2024-02-15T00:16:20;5.90;;;3.10;;
1000;SDS011;489;47.806;12.858;2024-02-15T00:18:23;6.80;;;5.10;;
1000;SDS011;489;47.806;12.858;2024-02-15T00:20:25;8.10;;;5.60;;
1000;SDS011;489;47.806;12.858;2024-02-15T00:22:27;8.60;;;5.20;;
1000;SDS011;489;47.806;12.858;2024-02-15T00:24:31;6.73;;;5.20;;
1000;SDS011;489;47.806;12.858;2024-02-15T00:26:33;5.70;;;4.60;;
1000;SDS011;489;47.806;12.858;2024-02-15T00:28:35;5.20;;;4.63;;
1000;SDS011;489;47.806;12.858;2024-02-15T00:30:38;5.77;;;4.30;;
1000;SDS011;489;47.806;12.858;2024-02-15T00:32:41;6.23;;;4.33;;
1000;SDS011;489;47.806;12.858;2024-02-15T00:34:44;5.43;;;4.23;;
1000;SDS011;489;47.806;12.858;2024-02-15T00:36:47;5.17;;;4.40;;
1000;SDS011;489;47.806;12.858;2024-02-15T00:38:49;5.03;;;4.57;;
1000;SDS011;489;47.806;12.858;2024-02-15T00:40:52;4.20;;;3.80;;
1000;SDS011;489;47.806;12.858;2024-02-15T00:42:54;4.33;;;3.80;;
1000;SDS011;489;47.806;12.858;2024-02-15T00:44:56;4.33;;;3.73;;
1000;SDS011;489;47.806;12.858;2024-02-15T00:46:59;3.73;;;3.43;;
1000;SDS011;489;47.806;12.858;2024-02-15T00:49:01;4.70;;;3.73;;
1000;SDS011;489;47.806;12.858;2024-02-15T00:51:04;4.10;;;3.70;;
1000;SDS011;489;47.806;12.858;2024-02-15T00:53:06;5.30;;;4.03;;
1000;SDS011;489;47.806;12.858;2024-02-15T00:55:08;5.13;;;4.13;;
1000;SDS011;489;47.806;12.858;2024-02-15T00:57:10;18.17;;;12.53;;
1000;SDS011;489;47.806;12.858;2024-02-15T00:59:11;18.30;;;12.17;;
1000;SDS011;489;47.806;12.858;2024-02-15T01:01:13;9.30;;;6.93;;
1000;SDS011;489;47.806;12.858;2024-02-15T01:03:16;5.70;;;5.07;;
1000;SDS011;489;47.806;12.858;2024-02-15T01:05:19;7.07;;;4.97;;
1000;SDS011;489;47.806;12.858;2024-02-15T01:07:22;4.87;;;4.37;;
1000;SDS011;489;47.806;12.858;2024-02-15T01:09:26;3.60;;;3.30;;
1000;SDS011;489;47.806;12.858;2024-02-15T01:11:28;4.00;;;3.63;;
1000;SDS011;489;47.806;12.858;2024-02-15T01:13:32;3.60;;;3.30;;
1000;SDS011;489;47.806;12.858;2024-02-15T01:15:34;3.50;;;3.20;;
1000;SDS011;489;47.806;12.858;2024-02-15T01:17:37;5.13;;;3.57;;
1000;SDS011;489;47.806;12.858;2024-02-15T01:19:40;3.90;;;3.50;;
1000;SDS011;489;47.806;12.858;2024-02-15T01:21:42;5.00;;;3.83;;
1000;SDS011;489;47.806;12.858;2024-02-15T01:23:46;4.00;;;3.13;;
1000;SDS011;489;47.806;12.858;2024-02-15T01:25:48;4.27;;;3.87;;
1000;SDS011;489;47.806;12.858;2024-02-15T01:27:50;4.40;;;3.73;;
1000;SDS011;489;47.806;12.858;2024-02-15T01:29:52;4.47;;;3.70;;
1000;SDS011;489;47.806;12.858;2024-02-15T01:31:55;4.60;;;3.67;;
1000;SDS011;489;47.806;12.858;2024-02-15T01:33:57;3.63;;;3.23;;
1000;SDS011;489;47.806;12.858;2024-02-15T01:36:00;3.90;;;3.27;;
1000;SDS011;489;47.806;12.858;2024-02-15T01:38:02;3.87;;;2.70;;
1000;SDS011;489;47.806;12.858;2024-02-15T01:40:04;3.30;;;3.00;;
1000;SDS011;489;47.806;12.858;2024-02-15T01:42:07;2.70;;;2.30;;
1000;SDS011;489;47.806;12.858;2024-02-15T01:44:09;3.30;;;3.00;;
1000;SDS011;489;47.806;12.858;2024-02-15T01:46:12;3.23;;;2.93;;
1000;SDS011;489;47.806;12.858;2024-02-15T01:48:14;4.20;;;3.83;;
1000;SDS011;489;47.806;12.858;2024-02-15T01:50:15;3.40;;;3.07;;
1000;SDS011;489;47.806;12.858;2024-02-15T01:52:20;3.30;;;3.00;;
1000;SDS011;489;47.806;12.858;2024-02-15T01:54:22;3.67;;;3.03;;
1000;SDS011;489;47.806;12.858;2024-02-15T01:56:25;3.53;;;2.90;;
1000;SDS011;489;47.806;12.858;2024-02-15T01:58:27;2.77;;;2.43;;
1000;SDS011;489;47.806;12.858;2024-02-15T02:00:32;3.90;;;2.93;;
1000;SDS011;489;47.806;12.858;2024-02-15T02:02:33;4.60;;;3.30;;
1000;SDS011;489;47.806;12.858;2024-02-15T02:04:36;3.97;;;3.30;;
1000;SDS011;489;47.806;12.858;2024-02-15T02:06:38;3.53;;;3.23;;
1000;SDS011;489;47.806;12.858;2024-02-15T02:08:42;5.20;;;3.40;;
1000;SDS011;489;47.806;12.858;2024-02-15T02:10:44;3.20;;;2.73;;
1000;SDS011;489;47.806;12.858;2024-02-15T02:12:46;3.03;;;2.57;;
1000;SDS011;489;47.806;12.858;2024-02-15T02:14:48;3.33;;;3.00;;
1000;SDS011;489;47.806;12.858;2024-02-15T02:16:50;3.33;;;2.80;;
1000;SDS011;489;47.806;12.858;2024-02-15T02:18:54;3.80;;;3.07;;
1000;SDS011;489;47.806;12.858;2024-02-15T02:20:57;4.87;;;3.07;;
1000;SDS011;489;47.806;12.858;2024-02-15T02:23:01;2.83;;;2.50;;
1000;SDS011;489;47.806;12.858;2024-02-15T02:25:09;3.47;;;3.10;;
1000;SDS011;489;47.806;12.858;2024-02-15T02:27:13;3.30;;;3.00;;
1000;SDS011;489;47.806;12.858;2024-02-15T02:29:15;2.83;;;2.50;;
1000;SDS011;489;47.806;12.858;2024-02-15T02:31:17;3.83;;;2.70;;
1000;SDS011;489;47.806;12.858;2024-02-15T02:33:19;3.90;;;2.87;;
1000;SDS011;489;47.806;12.858;2024-02-15T02:35:22;3.60;;;3.00;;
1000;SDS011;489;47.806;12.858;2024-02-15T02:37:24;3.20;;;2.67;;
1000;SDS011;489;47.806;12.858;2024-02-15T02:39:26;3.47;;;2.63;;
1000;SDS011;489;47.806;12.858;2024-02-15T02:41:33;2.90;;;2.60;;
1000;SDS011;489;47.806;12.858;2024-02-15T02:43:35;2.93;;;2.63;;
1000;SDS011;489;47.806;12.858;2024-02-15T02:45:37;3.07;;;2.87;;
1000;SDS011;489;47.806;12.858;2024-02-15T02:47:38;3.13;;;2.80;;
1000;SDS011;489;47.806;12.858;2024-02-15T02:49:40;3.43;;;3.13;;
1000;SDS011;489;47.806;12.858;2024-02-15T02:51:42;3.20;;;2.70;;
1000;SDS011;489;47.806;12.858;2024-02-15T02:53:45;3.20;;;3.00;;
1000;SDS011;489;47.806;12.858;2024-02-15T02:55:47;3.67;;;3.27;;
1000;SDS011;489;47.806;12.858;2024-02-15T02:57:50;2.90;;;2.67;;
1000;SDS011;489;47.806;12.858;2024-02-15T02:59:53;3.87;;;3.30;;
1000;SDS011;489;47.806;12.858;2024-02-15T03:01:54;3.60;;;2.97;;
1000;SDS011;489;47.806;12.858;2024-02-15T03:03:56;3.00;;;2.70;;
1000;SDS011;489;47.806;12.858;2024-02-15T03:05:59;3.10;;;2.80;;
1000;SDS011;489;47.806;12.858;2024-02-15T03:08:02;2.73;;;2.40;;
1000;SDS011;489;47.806;12.858;2024-02-15T03:10:04;3.20;;;2.77;;
1000;SDS011;489;47.806;12.858;2024-02-15T03:12:09;4.03;;;2.83;;
1000;SDS011;489;47.806;12.858;2024-02-15T03:14:12;3.83;;;2.90;;
1000;SDS011;489;47.806;12.858;2024-02-15T03:16:15;2.63;;;2.43;;
1000;SDS011;489;47.806;12.858;2024-02-15T03:18:17;2.53;;;2.33;;
1000;SDS011;489;47.806;12.858;2024-02-15T03:20:18;5.30;;;2.37;;
1000;SDS011;489;47.806;12.858;2024-02-15T03:22:24;3.70;;;2.37;;
1000;SDS011;489;47.806;12.858;2024-02-15T03:24:27;3.30;;;2.53;;
1000;SDS011;489;47.806;12.858;2024-02-15T03:26:29;3.07;;;2.63;;
1000;SDS011;489;47.806;12.858;2024-02-15T03:28:38;2.73;;;2.50;;
1000;SDS011;489;47.806;12.858;2024-02-15T03:30:41;3.07;;;2.77;;
1000;SDS011;489;47.806;12.858;2024-02-15T03:32:44;2.80;;;2.60;;
1000;SDS011;489;47.806;12.858;2024-02-15T03:34:46;2.63;;;2.43;;
1000;SDS011;489;47.806;12.858;2024-02-15T03:36:49;2.60;;;2.17;;
1000;SDS011;489;47.806;12.858;2024-02-15T03:38:54;3.00;;;2.77;;
1000;SDS011;489;47.806;12.858;2024-02-15T03:40:56;2.40;;;2.20;;
1000;SDS011;489;47.806;12.858;2024-02-15T03:42:58;3.10;;;2.43;;
1000;SDS011;489;47.806;12.858;2024-02-15T03:45:00;2.70;;;2.37;;
1000;SDS011;489;47.806;12.858;2024-02-15T03:47:02;2.47;;;2.27;;
1000;SDS011;489;47.806;12.858;2024-02-15T03:49:05;2.83;;;2.50;;
1000;SDS011;489;47.806;12.858;2024-02-15T03:51:08;2.53;;;2.33;;
1000;SDS011;489;47.806;12.858;2024-02-15T03:53:10;3.80;;;2.90;;
1000;SDS011;489;47.806;12.858;2024-02-15T03:55:13;3.27;;;2.77;;
1000;SDS011;489;47.806;12.858;2024-02-15T03:57:14;3.00;;;2.70;;
1000;SDS011;489;47.806;12.858;2024-02-15T03:59:17;3.10;;;2.50;;
1000;SDS011;489;47.806;12.858;2024-02-15T04:01:22;2.67;;;2.40;;
1000;SDS011;489;47.806;12.858;2024-02-15T04:03:25;3.00;;;2.27;;
1000;SDS011;489;47.806;12.858;2024-02-15T04:05:26;2.43;;;2.10;;
1000;SDS011;489;47.806;12.858;2024-02-15T04:07:29;2.50;;;2.27;;
1000;SDS011;489;47.806;12.858;2024-02-15T04:09:31;3.13;;;2.30;;
1000;SDS011;489;47.806;12.858;2024-02-15T04:11:34;2.73;;;2.27;;
1000;SDS011;489;47.806;12.858;2024-02-15T04:13:38;2.53;;;2.33;;
1000;SDS011;489;47.806;12.858;2024-02-15T04:15:39;2.60;;;2.30;;
1000;SDS011;489;47.806;12.858;2024-02-15T04:17:42;2.40;;;2.20;;
1000;SDS011;489;47.806;12.858;2024-02-15T04:19:46;2.57;;;2.00;;
1000;SDS011;489;47.806;12.858;2024-02-15T04:21:47;2.40;;;2.20;;
1000;SDS011;489;47.806;12.858;2024-02-15T04:23:49;3.83;;;1.93;;
1000;SDS011;489;47.806;12.858;2024-02-15T04:25:52;2.37;;;2.17;;
1000;SDS011;489;47.806;12.858;2024-02-15T04:27:54;2.20;;;1.97;;
1000;SDS011;489;47.806;12.858;2024-02-15T04:29:58;2.20;;;1.97;;
1000;SDS011;489;47.806;12.858;2024-02-15T04:32:00;2.93;;;2.47;;
1000;SDS011;489;47.806;12.858;2024-02-15T04:34:02;2.53;;;2.07;;
1000;SDS011;489;47.806;12.858;2024-02-15T04:36:06;2.17;;;1.93;;
1000;SDS011;489;47.806;12.858;2024-02-15T04:38:08;2.50;;;2.03;;
1000;SDS011;489;47.806;12.858;2024-02-15T04:40:10;2.13;;;1.90;;
1000;SDS011;489;47.806;12.858;2024-02-15T04:42:13;2.20;;;2.00;;
1000;SDS011;489;47.806;12.858;2024-02-15T04:44:17;1.83;;;1.73;;
1000;SDS011;489;47.806;12.858;2024-02-15T04:46:21;1.70;;;1.60;;
1000;SDS011;489;47.806;12.858;2024-02-15T04:48:25;1.83;;;1.73;;
1000;SDS011;489;47.806;12.858;2024-02-15T04:50:27;2.10;;;1.70;;
1000;SDS011;489;47.806;12.858;2024-02-15T04:52:31;3.33;;;2.00;;
1000;SDS011;489;47.806;12.858;2024-02-15T04:54:32;2.07;;;1.90;;
1000;SDS011;489;47.806;12.858;2024-02-15T04:56:34;2.50;;;2.00;;
1000;SDS011;489;47.806;12.858;2024-02-15T04:58:36;3.10;;;2.13;;
1000;SDS011;489;47.806;12.858;2024-02-15T05:00:45;2.10;;;1.63;;
1000;SDS011;489;47.806;12.858;2024-02-15T05:02:47;2.27;;;2.00;;
1000;SDS011;489;47.806;12.858;2024-02-15T05:04:49;1.73;;;1.63;;
1000;SDS011;489;47.806;12.858;2024-02-15T05:06:56;2.53;;;2.20;;
1000;SDS011;489;47.806;12.858;2024-02-15T05:08:59;1.93;;;1.73;;
1000;SDS011;489;47.806;12.858;2024-02-15T05:11:00;4.10;;;2.00;;
1000;SDS011;489;47.806;12.858;2024-02-15T05:13:04;2.77;;;1.97;;
1000;SDS011;489;47.806;12.858;2024-02-15T05:15:06;2.23;;;2.03;;
1000;SDS011;489;47.806;12.858;2024-02-15T05:17:10;3.50;;;2.40;;
1000;SDS011;489;47.806;12.858;2024-02-15T05:19:12;2.00;;;1.80;;
1000;SDS011;489;47.806;12.858;2024-02-15T05:21:15;3.37;;;2.43;;
1000;SDS011;489;47.806;12.858;2024-02-15T05:23:16;2.40;;;2.20;;
1000;SDS011;489;47.806;12.858;2024-02-15T05:25:20;2.13;;;1.80;;
1000;SDS011;489;47.806;12.858;2024-02-15T05:27:23;2.47;;;2.27;;
1000;SDS011;489;47.806;12.858;2024-02-15T05:29:24;1.90;;;1.77;;
1000;SDS011;489;47.806;12.858;2024-02-15T05:31:26;2.20;;;2.00;;
1000;SDS011;489;47.806;12.858;2024-02-15T05:33:29;2.20;;;2.10;;
1000;SDS011;489;47.806;12.858;2024-02-15T05:35:33;2.10;;;1.90;;
1000;SDS011;489;47.806;12.858;2024-02-15T05:37:36;2.23;;;2.00;;
1000;SDS011;489;47.806;12.858;2024-02-15T05:39:39;2.20;;;2.00;;
1000;SDS011;489;47.806;12.858;2024-02-15T05:41:42;2.20;;;1.97;;
1000;SDS011;489;47.806;12.858;2024-02-15T05:43:44;2.10;;;1.90;;
1000;SDS011;489;47.806;12.858;2024-02-15T05:45:47;2.00;;;1.90;;
1000;SDS011;489;47.806;12.858;2024-02-15T05:47:50;2.23;;;2.03;;
1000;SDS011;489;47.806;12.858;2024-02-15T05:49:51;2.00;;;1.80;;
1000;SDS011;489;47.806;12.858;2024-02-15T05:51:54;3.67;;;2.40;;
1000;SDS011;489;47.806;12.858;2024-02-15T05:53:56;2.37;;;2.17;;
1000;SDS011;489;47.806;12.858;2024-02-15T05:55:59;2.80;;;1.97;;
1000;SDS011;489;47.806;12.858;2024-02-15T05:58:03;2.70;;;2.20;;
1000;SDS011;489;47.806;12.858;2024-02-15T06:00:04;2.60;;;2.37;;
1000;SDS011;489;47.806;12.858;2024-02-15T06:02:07;2.40;;;2.20;;
1000;SDS011;489;47.806;12.858;2024-02-15T06:04:09;2.23;;;1.90;;
1000;SDS011;489;47.806;12.858;2024-02-15T06:06:11;3.13;;;2.37;;
1000;SDS011;489;47.806;12.858;2024-02-15T06:08:13;6.77;;;4.60;;
1000;SDS011;489;47.806;12.858;2024-02-15T06:10:14;4.67;;;4.17;;
1000;SDS011;489;47.806;12.858;2024-02-15T06:12:16;8.17;;;6.00;;
1000;SDS011;489;47.806;12.858;2024-02-15T06:14:19;7.87;;;6.50;;
1000;SDS011;489;47.806;12.858;2024-02-15T06:16:21;10.97;;;7.60;;
1000;SDS011;489;47.806;12.858;2024-02-15T06:18:23;12.33;;;8.87;;
1000;SDS011;489;47.806;12.858;2024-02-15T06:20:27;9.50;;;7.00;;
1000;SDS011;489;47.806;12.858;2024-02-15T06:22:31;13.00;;;8.30;;
1000;SDS011;489;47.806;12.858;2024-02-15T06:24:32;14.40;;;11.60;;
1000;SDS011;489;47.806;12.858;2024-02-15T06:26:35;12.60;;;9.87;;
1000;SDS011;489;47.806;12.858;2024-02-15T06:28:37;17.17;;;10.00;;
1000;SDS011;489;47.806;12.858;2024-02-15T06:30:57;10.53;;;8.37;;
1000;SDS011;489;47.806;12.858;2024-02-15T06:33:17;10.83;;;8.63;;
1000;SDS011;489;47.806;12.858;2024-02-15T06:35:35;9.43;;;7.67;;
1000;SDS011;489;47.806;12.858;2024-02-15T06:37:55;10.50;;;7.97;;
1000;SDS011;489;47.806;12.858;2024-02-15T06:40:14;6.93;;;5.50;;
1000;SDS011;489;47.806;12.858;2024-02-15T06:42:17;9.13;;;6.30;;
1000;SDS011;489;47.806;12.858;2024-02-15T06:44:20;8.50;;;6.77;;
1000;SDS011;489;47.806;12.858;2024-02-15T06:46:22;3.47;;;3.17;;
1000;SDS011;489;47.806;12.858;2024-02-15T06:48:24;2.90;;;2.70;;
1000;SDS011;489;47.806;12.858;2024-02-15T06:50:26;3.93;;;3.43;;
1000;SDS011;489;47.806;12.858;2024-02-15T06:52:30;4.23;;;3.70;;
1000;SDS011;489;47.806;12.858;2024-02-15T06:54:32;6.00;;;4.27;;
1000;SDS011;489;47.806;12.858;2024-02-15T06:56:36;7.40;;;4.77;;
1000;SDS011;489;47.806;12.858;2024-02-15T06:58:39;6.30;;;4.67;;
1000;SDS011;489;47.806;12.858;2024-02-15T07:00:41;5.53;;;4.23;;
1000;SDS011;489;47.806;12.858;2024-02-15T07:02:45;5.27;;;4.57;;
1000;SDS011;489;47.806;12.858;2024-02-15T07:04:46;6.40;;;4.90;;
1000;SDS011;489;47.806;12.858;2024-02-15T07:06:49;4.87;;;3.97;;
1000;SDS011;489;47.806;12.858;2024-02-15T07:08:52;4.63;;;4.00;;
1000;SDS011;489;47.806;12.858;2024-02-15T07:10:55;4.57;;;4.07;;
1000;SDS011;489;47.806;12.858;2024-02-15T07:12:57;5.63;;;4.13;;
1000;SDS011;489;47.806;12.858;2024-02-15T07:15:00;5.30;;;4.40;;
1000;SDS011;489;47.806;12.858;2024-02-15T07:17:04;5.57;;;5.00;;
1000;SDS011;489;47.806;12.858;2024-02-15T07:19:06;5.73;;;5.23;;
1000;SDS011;489;47.806;12.858;2024-02-15T07:21:09;6.10;;;4.60;;
1000;SDS011;489;47.806;12.858;2024-02-15T07:23:11;5.90;;;5.00;;
1000;SDS011;489;47.806;12.858;2024-02-15T07:25:13;6.33;;;5.73;;
1000;SDS011;489;47.806;12.858;2024-02-15T07:27:15;5.53;;;4.80;;
1000;SDS011;489;47.806;12.858;2024-02-15T07:29:18;5.23;;;4.73;;
1000;SDS011;489;47.806;12.858;2024-02-15T07:31:21;7.10;;;5.47;;
1000;SDS011;489;47.806;12.858;2024-02-15T07:33:23;6.23;;;4.83;;
1000;SDS011;489;47.806;12.858;2024-02-15T07:35:26;5.50;;;4.03;;
1000;SDS011;489;47.806;12.858;2024-02-15T07:37:29;4.93;;;4.43;;
1000;SDS011;489;47.806;12.858;2024-02-15T07:39:31;4.33;;;3.93;;
1000;SDS011;489;47.806;12.858;2024-02-15T07:41:33;6.07;;;4.23;;
1000;SDS011;489;47.806;12.858;2024-02-15T07:43:34;5.13;;;4.20;;
1000;SDS011;489;47.806;12.858;2024-02-15T07:45:35;6.97;;;4.50;;
1000;SDS011;489;47.806;12.858;2024-02-15T07:47:37;4.30;;;3.90;;
1000;SDS011;489;47.806;12.858;2024-02-15T07:49:39;3.93;;;3.63;;
1000;SDS011;489;47.806;12.858;2024-02-15T07:51:45;4.80;;;4.40;;
1000;SDS011;489;47.806;12.858;2024-02-15T07:53:52;3.80;;;3.50;;
1000;SDS011;489;47.806;12.858;2024-02-15T07:55:54;4.00;;;3.60;;
1000;SDS011;489;47.806;12.858;2024-02-15T07:57:55;3.90;;;3.20;;
1000;SDS011;489;47.806;12.858;2024-02-15T07:59:59;4.03;;;3.57;;
1000;SDS011;489;47.806;12.858;2024-02-15T08:02:00;3.57;;;3.27;;
1000;SDS011;489;47.806;12.858;2024-02-15T08:04:02;3.87;;;3.57;;
1000;SDS011;489;47.806;12.858;2024-02-15T08:06:05;6.00;;;3.97;;
1000;SDS011;489;47.806;12.858;2024-02-15T08:08:08;4.77;;;3.97;;
1000;SDS011;489;47.806;12.858;2024-02-15T08:10:10;4.40;;;4.00;;
1000;SDS011;489;47.806;12.858;2024-02-15T08:12:14;3.67;;;3.30;;
1000;SDS011;489;47.806;12.858;2024-02-15T08:14:16;4.00;;;3.50;;
1000;SDS011;489;47.806;12.858;2024-02-15T08:16:18;3.47;;;3.17;;
1000;SDS011;489;47.806;12.858;2024-02-15T08:18:21;3.97;;;3.03;;
1000;SDS011;489;47.806;12.858;2024-02-15T08:20:23;3.23;;;2.93;;
1000;SDS011;489;47.806;12.858;2024-02-15T08:22:25;3.87;;;3.47;;
1000;SDS011;489;47.806;12.858;2024-02-15T08:24:28;4.50;;;3.40;;
1000;SDS011;489;47.806;12.858;2024-02-15T08:26:31;3.80;;;3.33;;
1000;SDS011;489;47.806;12.858;2024-02-15T08:28:33;3.00;;;2.70;;
1000;SDS011;489;47.806;12.858;2024-02-15T08:30:36;4.20;;;3.70;;
1000;SDS011;489;47.806;12.858;2024-02-15T08:32:38;3.30;;;2.80;;
1000;SDS011;489;47.806;12.858;2024-02-15T08:34:42;3.30;;;3.00;;
1000;SDS011;489;47.806;12.858;2024-02-15T08:36:43;4.37;;;3.50;;
1000;SDS011;489;47.806;12.858;2024-02-15T08:38:44;3.27;;;2.97;;
1000;SDS011;489;47.806;12.858;2024-02-15T08:40:48;3.23;;;2.90;;
1000;SDS011;489;47.806;12.858;2024-02-15T08:42:51;4.03;;;3.63;;
1000;SDS011;489;47.806;12.858;2024-02-15T08:44:53;3.47;;;3.07;;
1000;SDS011;489;47.806;12.858;2024-02-15T08:46:55;2.90;;;2.70;;
1000;SDS011;489;47.806;12.858;2024-02-15T08:48:57;3.40;;;3.10;;
1000;SDS011;489;47.806;12.858;2024-02-15T08:51:01;3.50;;;2.63;;
1000;SDS011;489;47.806;12.858;2024-02-15T08:53:03;3.57;;;2.67;;
1000;SDS011;489;47.806;12.858;2024-02-15T08:55:07;3.40;;;3.10;;
1000;SDS011;489;47.806;12.858;2024-02-15T08:57:11;3.97;;;3.60;;
1000;SDS011;489;47.806;12.858;2024-02-15T08:59:13;3.40;;;3.10;;
1000;SDS011;489;47.806;12.858;2024-02-15T09:01:17;3.60;;;3.30;;
1000;SDS011;489;47.806;12.858;2024-02-15T09:03:19;3.73;;;3.30;;
1000;SDS011;489;47.806;12.858;2024-02-15T09:05:21;3.70;;;3.30;;
1000;SDS011;489;47.806;12.858;2024-02-15T09:07:23;3.50;;;3.20;;
1000;SDS011;489;47.806;12.858;2024-02-15T09:09:24;3.23;;;2.93;;
1000;SDS011;489;47.806;12.858;2024-02-15T09:11:28;3.73;;;3.17;;
1000;SDS011;489;47.806;12.858;2024-02-15T09:13:31;4.60;;;2.90;;
1000;SDS011;489;47.806;12.858;2024-02-15T09:15:37;3.33;;;3.00;;
1000;SDS011;489;47.806;12.858;2024-02-15T09:17:41;3.17;;;2.80;;
1000;SDS011;489;47.806;12.858;2024-02-15T09:19:46;2.97;;;2.30;;
1000;SDS011;489;47.806;12.858;2024-02-15T09:21:49;4.13;;;3.03;;
1000;SDS011;489;47.806;12.858;2024-02-15T09:23:51;3.00;;;2.70;;
1000;SDS011;489;47.806;12.858;2024-02-15T09:25:52;3.50;;;2.67;;
1000;SDS011;489;47.806;12.858;2024-02-15T09:27:54;3.60;;;2.23;;
1000;SDS011;489;47.806;12.858;2024-02-15T09:29:57;2.30;;;2.10;;
1000;SDS011;489;47.806;12.858;2024-02-15T09:32:00;4.57;;;2.30;;
1000;SDS011;489;47.806;12.858;2024-02-15T09:34:02;4.00;;;3.20;;
1000;SDS011;489;47.806;12.858;2024-02-15T09:36:06;2.57;;;2.30;;
1000;SDS011;489;47.806;12.858;2024-02-15T09:38:08;3.60;;;2.60;;
1000;SDS011;489;47.806;12.858;2024-02-15T09:40:11;3.10;;;2.80;;
1000;SDS011;489;47.806;12.858;2024-02-15T09:42:13;3.87;;;2.47;;
1000;SDS011;489;47.806;12.858;2024-02-15T09:44:15;4.13;;;2.57;;
1000;SDS011;489;47.806;12.858;2024-02-15T09:46:18;3.00;;;2.70;;
1000;SDS011;489;47.806;12.858;2024-02-15T09:48:20;2.30;;;2.10;;
1000;SDS011;489;47.806;12.858;2024-02-15T09:50:25;3.70;;;2.57;;
1000;SDS011;489;47.806;12.858;2024-02-15T09:52:27;2.40;;;2.20;;
1000;SDS011;489;47.806;12.858;2024-02-15T09:54:32;2.73;;;2.17;;
1000;SDS011;489;47.806;12.858;2024-02-15T09:56:34;3.90;;;2.73;;
1000;SDS011;489;47.806;12.858;2024-02-15T09:58:37;2.57;;;2.30;;
1000;SDS011;489;47.806;12.858;2024-02-15T10:00:40;2.30;;;2.10;;
1000;SDS011;489;47.806;12.858;2024-02-15T10:02:46;2.10;;;1.90;;
1000;SDS011;489;47.806;12.858;2024-02-15T10:04:48;2.10;;;1.90;;
1000;SDS011;489;47.806;12.858;2024-02-15T10:06:50;4.47;;;4.17;;
1000;SDS011;489;47.806;12.858;2024-02-15T10:08:52;3.17;;;2.87;;
1000;SDS011;489;47.806;12.858;2024-02-15T10:11:05;3.83;;;3.23;;
1000;SDS011;489;47.806;12.858;2024-02-15T10:13:08;3.90;;;2.20;;
1000;SDS011;489;47.806;12.858;2024-02-15T10:15:28;2.77;;;2.50;;
1000;SDS011;489;47.806;12.858;2024-02-15T10:17:31;2.07;;;1.30;;
1000;SDS011;489;47.806;12.858;2024-02-15T10:19:37;1.60;;;1.50;;
1000;SDS011;489;47.806;12.858;2024-02-15T10:21:38;1.57;;;1.20;;
1000;SDS011;489;47.806;12.858;2024-02-15T10:23:40;1.57;;;1.40;;
1000;SDS011;489;47.806;12.858;2024-02-15T10:26:18;1.50;;;1.30;;
1000;SDS011;489;47.806;12.858;2024-02-15T10:28:23;3.10;;;1.47;;
1000;SDS011;489;47.806;12.858;2024-02-15T10:30:25;2.67;;;1.63;;
1000;SDS011;489;47.806;12.858;2024-02-15T10:32:33;1.60;;;1.30;;
1000;SDS011;489;47.806;12.858;2024-02-15T10:34:38;0.87;;;0.87;;
1000;SDS011;489;47.806;12.858;2024-02-15T10:36:45;1.90;;;1.03;;
1000;SDS011;489;47.806;12.858;2024-02-15T10:38:47;1.10;;;0.80;;
1000;SDS011;489;47.806;12.858;2024-02-15T10:40:49;1.33;;;1.00;;
1000;SDS011;489;47.806;12.858;2024-02-15T10:42:51;1.00;;;0.80;;
1000;SDS011;489;47.806;12.858;2024-02-15T10:44:53;1.33;;;0.70;;
1000;SDS011;489;47.806;12.858;2024-02-15T10:46:55;0.93;;;0.77;;
1000;SDS011;489;47.806;12.858;2024-02-15T10:48:59;1.30;;;0.90;;
1000;SDS011;489;47.806;12.858;2024-02-15T10:51:01;1.20;;;1.00;;
1000;SDS011;489;47.806;12.858;2024-02-15T10:53:11;1.57;;;0.83;;
1000;SDS011;489;47.806;12.858;2024-02-15T10:55:26;2.10;;;1.50;;
1000;SDS011;489;47.806;12.858;2024-02-15T10:57:37;1.47;;;1.30;;
1000;SDS011;489;47.806;12.858;2024-02-15T10:59:43;1.87;;;0.90;;
1000;SDS011;489;47.806;12.858;2024-02-15T11:01:54;2.00;;;1.20;;
1000;SDS011;489;47.806;12.858;2024-02-15T11:04:01;1.00;;;0.87;;
1000;SDS011;489;47.806;12.858;2024-02-15T11:06:08;1.03;;;0.80;;
1000;SDS011;489;47.806;12.858;2024-02-15T11:08:11;0.83;;;0.80;;
1000;SDS011;489;47.806;12.858;2024-02-15T11:10:13;1.13;;;0.90;;
1000;SDS011;489;47.806;12.858;2024-02-15T11:12:19;0.97;;;0.77;;
1000;SDS011;489;47.806;12.858;2024-02-15T11:14:23;1.00;;;0.90;;
1000;SDS011;489;47.806;12.858;2024-02-15T11:16:39;1.20;;;0.80;;
1000;SDS011;489;47.806;12.858;2024-02-15T11:18:43;1.67;;;0.80;;
1000;SDS011;489;47.806;12.858;2024-02-15T11:20:51;0.93;;;0.70;;
1000;SDS011;489;47.806;12.858;2024-02-15T11:22:58;0.70;;;0.60;;
1000;SDS011;489;47.806;12.858;2024-02-15T11:25:00;1.20;;;0.90;;
1000;SDS011;489;47.806;12.858;2024-02-15T11:27:03;0.70;;;0.50;;
1000;SDS011;489;47.806;12.858;2024-02-15T11:29:05;0.67;;;0.60;;
1000;SDS011;489;47.806;12.858;2024-02-15T11:31:10;1.03;;;0.77;;
1000;SDS011;489;47.806;12.858;2024-02-15T11:33:27;0.70;;;0.70;;
1000;SDS011;489;47.806;12.858;2024-02-15T11:35:30;1.33;;;0.80;;
1000;SDS011;489;47.806;12.858;2024-02-15T11:37:50;1.10;;;0.70;;
1000;SDS011;489;47.806;12.858;2024-02-15T11:39:59;0.90;;;0.60;;
1000;SDS011;489;47.806;12.858;2024-02-15T11:44:29;1.10;;;1.00;;
1000;SDS011;489;47.806;12.858;2024-02-15T11:46:32;1.00;;;0.90;;
1000;SDS011;489;47.806;12.858;2024-02-15T11:48:35;1.27;;;0.90;;
1000;SDS011;489;47.806;12.858;2024-02-15T11:50:39;0.87;;;0.70;;
1000;SDS011;489;47.806;12.858;2024-02-15T11:52:41;0.90;;;0.60;;
1000;SDS011;489;47.806;12.858;2024-02-15T11:54:42;1.00;;;0.70;;
1000;SDS011;489;47.806;12.858;2024-02-15T11:56:55;0.90;;;0.70;;
1000;SDS011;489;47.806;12.858;2024-02-15T11:59:10;0.60;;;0.47;;
1000;SDS011;489;47.806;12.858;2024-02-15T12:01:19;1.10;;;0.90;;
1000;SDS011;489;47.806;12.858;2024-02-15T12:03:38;1.20;;;0.80;;
1000;SDS011;489;47.806;12.858;2024-02-15T12:05:57;0.93;;;0.70;;
1000;SDS011;489;47.806;12.858;2024-02-15T12:08:17;0.70;;;0.70;;
1000;SDS011;489;47.806;12.858;2024-02-15T12:10:36;0.70;;;0.60;;
1000;SDS011;489;47.806;12.858;2024-02-15T12:12:53;1.60;;;0.70;;
1000;SDS011;489;47.806;12.858;2024-02-15T12:15:13;0.90;;;0.70;;
1000;SDS011;489;47.806;12.858;2024-02-15T12:17:32;1.90;;;1.00;;
1000;SDS011;489;47.806;12.858;2024-02-15T12:19:52;0.70;;;0.60;;
1000;SDS011;489;47.806;12.858;2024-02-15T12:21:55;0.93;;;0.73;;
1000;SDS011;489;47.806;12.858;2024-02-15T12:23:58;1.73;;;0.60;;
1000;SDS011;489;47.806;12.858;2024-02-15T12:26:00;1.10;;;0.60;;
1000;SDS011;489;47.806;12.858;2024-02-15T12:28:05;0.80;;;0.50;;
1000;SDS011;489;47.806;12.858;2024-02-15T12:30:09;1.10;;;0.80;;
1000;SDS011;489;47.806;12.858;2024-02-15T12:32:19;1.23;;;0.70;;
1000;SDS011;489;47.806;12.858;2024-02-15T12:34:21;0.90;;;0.80;;
1000;SDS011;489;47.806;12.858;2024-02-15T12:36:26;1.00;;;0.60;;
1000;SDS011;489;47.806;12.858;2024-02-15T12:38:28;1.40;;;0.77;;
1000;SDS011;489;47.806;12.858;2024-02-15T12:40:30;1.17;;;1.07;;
1000;SDS011;489;47.806;12.858;2024-02-15T12:42:37;1.00;;;0.90;;
1000;SDS011;489;47.806;12.858;2024-02-15T12:44:43;0.80;;;0.70;;
1000;SDS011;489;47.806;12.858;2024-02-15T12:46:46;0.90;;;0.67;;
1000;SDS011;489;47.806;12.858;2024-02-15T12:48:49;0.97;;;0.73;;
1000;SDS011;489;47.806;12.858;2024-02-15T12:50:53;1.00;;;0.80;;